sensor_id;sensor_type;location;lat;lon;timestamp;pressure;altitude;pressure_sealevel;temperature;humidity
24666;BME280;29726;53.532;-1.478;2024-01-06T00:00:34;99803.25;;;9.46;100.00
24666;BME280;29726;53.532;-1.478;2024-01-06T00:03:21;99801.72;;;9.45;100.00
24666;BME280;29726;53.532;-1.478;2024-01-06T00:06:06;99798.66;;;9.43;100.00
24666;BME280;29726;53.532;-1.478;2024-01-06T00:08:51;99797.41;;;9.44;100.00
24666;BME280;29726;53.532;-1.478;2024-01-06T00:11:38;99800.19;;;9.44;100.00
24666;BME280;29726;53.532;-1.478;2024-01-06T00:14:23;99800.66;;;9.42;100.00
24666;BME280;29726;53.532;-1.478;2024-01-06T00:17:08;99802.19;;;9.43;100.00
24666;BME280;29726;53.532;-1.478;2024-01-06T00:19:55;99801.44;;;9.43;100.00
24666;BME280;29726;53.532;-1.478;2024-01-06T00:22:39;99800.66;;;9.42;100.00
24666;BME280;29726;53.532;-1.478;2024-01-06T00:25:26;99813.03;;;9.41;100.00
24666;BME280;29726;53.532;-1.478;2024-01-06T00:28:10;99817.84;;;9.41;100.00
24666;BME280;29726;53.532;-1.478;2024-01-06T00:30:54;99811.97;;;9.39;100.00
24666;BME280;29726;53.532;-1.478;2024-01-06T00:33:38;99824.63;;;9.40;100.00
24666;BME280;29726;53.532;-1.478;2024-01-06T00:36:22;99821.56;;;9.38;100.00
24666;BME280;29726;53.532;-1.478;2024-01-06T00:39:06;99835.03;;;9.39;100.00
24666;BME280;29726;53.532;-1.478;2024-01-06T00:41:50;99833.94;;;9.37;100.00
24666;BME280;29726;53.532;-1.478;2024-01-06T00:44:36;99843.84;;;9.38;100.00
24666;BME280;29726;53.532;-1.478;2024-01-06T00:47:21;99847.88;;;9.37;100.00
24666;BME280;29726;53.532;-1.478;2024-01-06T00:50:09;99842.50;;;9.33;100.00
24666;BME280;29726;53.532;-1.478;2024-01-06T00:52:53;99854.41;;;9.34;100.00
24666;BME280;29726;53.532;-1.478;2024-01-06T00:55:44;99857.47;;;9.36;100.00
24666;BME280;29726;53.532;-1.478;2024-01-06T00:58:28;99850.06;;;9.33;100.00
24666;BME280;29726;53.532;-1.478;2024-01-06T01:01:12;99859.97;;;9.34;100.00
24666;BME280;29726;53.532;-1.478;2024-01-06T01:03:55;99860.94;;;9.31;100.00
24666;BME280;29726;53.532;-1.478;2024-01-06T01:06:40;99862.75;;;9.34;100.00
24666;BME280;29726;53.532;-1.478;2024-01-06T01:09:24;99867.09;;;9.35;100.00
24666;BME280;29726;53.532;-1.478;2024-01-06T01:12:09;99862.19;;;9.30;100.00
24666;BME280;29726;53.532;-1.478;2024-01-06T01:14:54;99875.94;;;9.33;100.00
24666;BME280;29726;53.532;-1.478;2024-01-06T01:17:40;99872.84;;;9.31;100.00
24666;BME280;29726;53.532;-1.478;2024-01-06T01:20:25;99878.41;;;9.31;100.00
24666;BME280;29726;53.532;-1.478;2024-01-06T01:23:09;99884.44;;;9.30;100.00
24666;BME280;29726;53.532;-1.478;2024-01-06T01:25:54;99885.69;;;9.29;100.00
24666;BME280;29726;53.532;-1.478;2024-01-06T01:28:43;99886.94;;;9.28;100.00
24666;BME280;29726;53.532;-1.478;2024-01-06T01:31:28;99889.25;;;9.29;100.00
24666;BME280;29726;53.532;-1.478;2024-01-06T01:34:13;99897.63;;;9.29;100.00
24666;BME280;29726;53.532;-1.478;2024-01-06T01:36:59;99895.28;;;9.28;100.00
24666;BME280;29726;53.532;-1.478;2024-01-06T01:39:44;99905.19;;;9.29;100.00
24666;BME280;29726;53.532;-1.478;2024-01-06T01:42:28;99891.91;;;9.24;100.00
24666;BME280;29726;53.532;-1.478;2024-01-06T01:45:13;99907.97;;;9.29;100.00
24666;BME280;29726;53.532;-1.478;2024-01-06T01:47:59;99905.66;;;9.27;100.00
24666;BME280;29726;53.532;-1.478;2024-01-06T01:50:47;99914.34;;;9.29;100.00
24666;BME280;29726;53.532;-1.478;2024-01-06T01:53:31;99923.16;;;9.28;100.00
24666;BME280;29726;53.532;-1.478;2024-01-06T01:56:17;99928.72;;;9.28;100.00
24666;BME280;29726;53.532;-1.478;2024-01-06T01:59:06;99924.56;;;9.23;100.00
24666;BME280;29726;53.532;-1.478;2024-01-06T02:01:54;99925.63;;;9.26;100.00
24666;BME280;29726;53.532;-1.478;2024-01-06T02:04:41;99930.41;;;9.25;100.00
24666;BME280;29726;53.532;-1.478;2024-01-06T02:07:25;99925.34;;;9.24;100.00
24666;BME280;29726;53.532;-1.478;2024-01-06T02:10:16;99932.44;;;9.25;100.00
24666;BME280;29726;53.532;-1.478;2024-01-06T02:13:16;99932.16;;;9.23;100.00
24666;BME280;29726;53.532;-1.478;2024-01-06T02:16:00;99940.81;;;9.25;100.00
24666;BME280;29726;53.532;-1.478;2024-01-06T02:18:44;99943.28;;;9.23;100.00
24666;BME280;29726;53.532;-1.478;2024-01-06T02:21:32;99954.72;;;9.25;100.00
24666;BME280;29726;53.532;-1.478;2024-01-06T02:24:21;99955.97;;;9.24;100.00
24666;BME280;29726;53.532;-1.478;2024-01-06T02:27:08;99967.09;;;9.24;100.00
24666;BME280;29726;53.532;-1.478;2024-01-06T02:29:56;99971.44;;;9.25;100.00
24666;BME280;29726;53.532;-1.478;2024-01-06T02:32:40;99973.44;;;9.24;100.00
24666;BME280;29726;53.532;-1.478;2024-01-06T02:35:24;99976.72;;;9.23;100.00
24666;BME280;29726;53.532;-1.478;2024-01-06T02:38:12;99983.03;;;9.23;100.00
24666;BME280;29726;53.532;-1.478;2024-01-06T02:41:01;99990.34;;;9.21;100.00
24666;BME280;29726;53.532;-1.478;2024-01-06T02:43:46;99997.44;;;9.22;100.00
24666;BME280;29726;53.532;-1.478;2024-01-06T02:46:30;99991.88;;;9.22;100.00
24666;BME280;29726;53.532;-1.478;2024-01-06T02:49:20;99997.91;;;9.20;100.00
24666;BME280;29726;53.532;-1.478;2024-01-06T02:52:06;100001.47;;;9.21;100.00
24666;BME280;29726;53.532;-1.478;2024-01-06T02:54:50;100011.06;;;9.20;100.00
24666;BME280;29726;53.532;-1.478;2024-01-06T02:57:35;100007.78;;;9.21;100.00
24666;BME280;29726;53.532;-1.478;2024-01-06T03:00:21;100012.59;;;9.21;100.00
24666;BME280;29726;53.532;-1.478;2024-01-06T03:03:07;100017.09;;;9.18;100.00
24666;BME280;29726;53.532;-1.478;2024-01-06T03:05:52;100021.72;;;9.21;100.00
24666;BME280;29726;53.532;-1.478;2024-01-06T03:08:37;100021.72;;;9.21;100.00
24666;BME280;29726;53.532;-1.478;2024-01-06T03:11:25;100025.44;;;9.18;100.00
24666;BME280;29726;53.532;-1.478;2024-01-06T03:14:08;100014.06;;;9.07;100.00
24666;BME280;29726;53.532;-1.478;2024-01-06T03:16:54;100045.72;;;9.19;100.00
24666;BME280;29726;53.532;-1.478;2024-01-06T03:19:39;100039.06;;;9.16;100.00
24666;BME280;29726;53.532;-1.478;2024-01-06T03:22:25;100046.34;;;9.14;100.00
24666;BME280;29726;53.532;-1.478;2024-01-06T03:25:10;100058.56;;;9.16;100.00
24666;BME280;29726;53.532;-1.478;2024-01-06T03:27:58;100062.88;;;9.17;100.00
24666;BME280;29726;53.532;-1.478;2024-01-06T03:30:42;100056.22;;;9.15;100.00
24666;BME280;29726;53.532;-1.478;2024-01-06T03:33:32;100062.59;;;9.15;100.00
24666;BME280;29726;53.532;-1.478;2024-01-06T03:36:16;100061.03;;;9.14;100.00
24666;BME280;29726;53.532;-1.478;2024-01-06T03:39:02;100067.38;;;9.15;100.00
24666;BME280;29726;53.532;-1.478;2024-01-06T03:41:51;100078.50;;;9.15;100.00
24666;BME280;29726;53.532;-1.478;2024-01-06T03:44:35;100063.81;;;9.14;100.00
24666;BME280;29726;53.532;-1.478;2024-01-06T03:47:21;100070.94;;;9.15;100.00
24666;BME280;29726;53.532;-1.478;2024-01-06T03:50:06;100072.63;;;9.13;100.00
24666;BME280;29726;53.532;-1.478;2024-01-06T03:52:51;100075.72;;;9.15;100.00
24666;BME280;29726;53.532;-1.478;2024-01-06T03:55:46;100079.75;;;9.14;100.00
24666;BME280;29726;53.532;-1.478;2024-01-06T03:58:30;100076.66;;;9.12;100.00
24666;BME280;29726;53.532;-1.478;2024-01-06T04:01:17;100081.94;;;9.10;100.00
24666;BME280;29726;53.532;-1.478;2024-01-06T04:04:06;100084.25;;;9.11;100.00
24666;BME280;29726;53.532;-1.478;2024-01-06T04:06:52;100087.78;;;9.12;100.00
24666;BME280;29726;53.532;-1.478;2024-01-06T04:09:37;100091.53;;;9.09;100.00
24666;BME280;29726;53.532;-1.478;2024-01-06T04:12:27;100100.97;;;9.11;100.00
24666;BME280;29726;53.532;-1.478;2024-01-06T04:15:19;100095.53;;;9.08;100.00
24666;BME280;29726;53.532;-1.478;2024-01-06T04:18:03;100104.69;;;9.08;100.00
24666;BME280;29726;53.532;-1.478;2024-01-06T04:20:56;100105.13;;;9.07;100.00
24666;BME280;29726;53.532;-1.478;2024-01-06T04:23:41;100105.63;;;9.05;100.00
24666;BME280;29726;53.532;-1.478;2024-01-06T04:26:25;100101.75;;;9.03;100.00
24666;BME280;29726;53.532;-1.478;2024-01-06T04:29:09;100103.28;;;9.04;100.00
24666;BME280;29726;53.532;-1.478;2024-01-06T04:31:54;100079.19;;;8.92;100.00
24666;BME280;29726;53.532;-1.478;2024-01-06T04:34:42;100103.75;;;9.02;100.00
24666;BME280;29726;53.532;-1.478;2024-01-06T04:37:25;100114.56;;;9.00;100.00
24666;BME280;29726;53.532;-1.478;2024-01-06T04:40:14;100111.66;;;8.95;100.00
24666;BME280;29726;53.532;-1.478;2024-01-06T04:43:00;100107.66;;;8.96;100.00
24666;BME280;29726;53.532;-1.478;2024-01-06T04:45:46;100113.22;;;8.96;100.00
24666;BME280;29726;53.532;-1.478;2024-01-06T04:48:40;100110.13;;;8.94;100.00
24666;BME280;29726;53.532;-1.478;2024-01-06T04:51:25;100119.38;;;8.91;100.00
24666;BME280;29726;53.532;-1.478;2024-01-06T04:54:11;100122.94;;;8.91;100.00
24666;BME280;29726;53.532;-1.478;2024-01-06T04:56:59;100121.84;;;8.89;100.00
24666;BME280;29726;53.532;-1.478;2024-01-06T04:59:50;100127.91;;;8.87;100.00
24666;BME280;29726;53.532;-1.478;2024-01-06T05:02:46;100132.69;;;8.87;100.00
24666;BME280;29726;53.532;-1.478;2024-01-06T05:05:32;100126.97;;;8.81;100.00
24666;BME280;29726;53.532;-1.478;2024-01-06T05:08:18;100130.22;;;8.80;100.00
24666;BME280;29726;53.532;-1.478;2024-01-06T05:11:06;100140.56;;;8.79;100.00
24666;BME280;29726;53.532;-1.478;2024-01-06T05:13:51;100126.22;;;8.72;100.00
24666;BME280;29726;53.532;-1.478;2024-01-06T05:16:36;100134.38;;;8.75;100.00
24666;BME280;29726;53.532;-1.478;2024-01-06T05:19:23;100147.53;;;8.75;100.00
24666;BME280;29726;53.532;-1.478;2024-01-06T05:22:14;100143.38;;;8.70;100.00
24666;BME280;29726;53.532;-1.478;2024-01-06T05:24:58;100150.16;;;8.69;100.00
24666;BME280;29726;53.532;-1.478;2024-01-06T05:27:44;100158.19;;;8.67;100.00
24666;BME280;29726;53.532;-1.478;2024-01-06T05:30:31;100169.78;;;8.66;100.00
24666;BME280;29726;53.532;-1.478;2024-01-06T05:33:17;100174.28;;;8.63;100.00
24666;BME280;29726;53.532;-1.478;2024-01-06T05:36:04;100177.50;;;8.62;100.00
24666;BME280;29726;53.532;-1.478;2024-01-06T05:38:48;100170.53;;;8.57;100.00
24666;BME280;29726;53.532;-1.478;2024-01-06T05:41:37;100169.00;;;8.56;100.00
24666;BME280;29726;53.532;-1.478;2024-01-06T05:44:23;100175.50;;;8.53;100.00
24666;BME280;29726;53.532;-1.478;2024-01-06T05:47:08;100187.53;;;8.50;100.00
24666;BME280;29726;53.532;-1.478;2024-01-06T05:49:56;100186.78;;;8.50;100.00
24666;BME280;29726;53.532;-1.478;2024-01-06T05:52:40;100183.50;;;8.42;100.00
24666;BME280;29726;53.532;-1.478;2024-01-06T05:55:28;100196.50;;;8.45;100.00
24666;BME280;29726;53.532;-1.478;2024-01-06T05:58:24;100197.56;;;8.39;100.00
24666;BME280;29726;53.532;-1.478;2024-01-06T06:01:09;100210.53;;;8.42;100.00
24666;BME280;29726;53.532;-1.478;2024-01-06T06:03:53;100209.00;;;8.41;100.00
24666;BME280;29726;53.532;-1.478;2024-01-06T06:06:42;100215.47;;;8.38;100.00
24666;BME280;29726;53.532;-1.478;2024-01-06T06:09:26;100216.09;;;8.33;100.00
24666;BME280;29726;53.532;-1.478;2024-01-06T06:12:13;100226.75;;;8.34;100.00
24666;BME280;29726;53.532;-1.478;2024-01-06T06:15:04;100234.00;;;8.32;100.00
24666;BME280;29726;53.532;-1.478;2024-01-06T06:17:53;100218.84;;;8.24;100.00
24666;BME280;29726;53.532;-1.478;2024-01-06T06:20:37;100236.63;;;8.26;100.00
24666;BME280;29726;53.532;-1.478;2024-01-06T06:23:23;100244.63;;;8.24;100.00
24666;BME280;29726;53.532;-1.478;2024-01-06T06:26:11;100252.22;;;8.24;100.00
24666;BME280;29726;53.532;-1.478;2024-01-06T06:28:58;100246.47;;;8.19;100.00
24666;BME280;29726;53.532;-1.478;2024-01-06T06:31:42;100248.47;;;8.18;100.00
24666;BME280;29726;53.532;-1.478;2024-01-06T06:34:30;100235.56;;;8.03;100.00
24666;BME280;29726;53.532;-1.478;2024-01-06T06:37:16;100261.72;;;8.14;100.00
24666;BME280;29726;53.532;-1.478;2024-01-06T06:40:10;100260.28;;;8.10;100.00
24666;BME280;29726;53.532;-1.478;2024-01-06T06:42:59;100267.88;;;8.09;100.00
24666;BME280;29726;53.532;-1.478;2024-01-06T06:45:45;100275.56;;;8.05;100.00
24666;BME280;29726;53.532;-1.478;2024-01-06T06:48:33;100282.38;;;8.04;100.00
24666;BME280;29726;53.532;-1.478;2024-01-06T06:51:20;100286.81;;;8.02;100.00
24666;BME280;29726;53.532;-1.478;2024-01-06T06:54:08;100292.81;;;8.00;100.00
24666;BME280;29726;53.532;-1.478;2024-01-06T06:56:53;100300.84;;;7.98;100.00
24666;BME280;29726;53.532;-1.478;2024-01-06T06:59:43;100296.66;;;7.94;100.00
24666;BME280;29726;53.532;-1.478;2024-01-06T07:02:29;100292.47;;;7.89;100.00
24666;BME280;29726;53.532;-1.478;2024-01-06T07:05:13;100307.16;;;7.90;100.00
24666;BME280;29726;53.532;-1.478;2024-01-06T07:08:00;100318.69;;;7.88;100.00
24666;BME280;29726;53.532;-1.478;2024-01-06T07:10:44;100319.59;;;7.85;100.00
24666;BME280;29726;53.532;-1.478;2024-01-06T07:13:28;100322.84;;;7.84;100.00
24666;BME280;29726;53.532;-1.478;2024-01-06T07:16:12;100327.00;;;7.79;100.00
24666;BME280;29726;53.532;-1.478;2024-01-06T07:18:56;100338.09;;;7.79;100.00
24666;BME280;29726;53.532;-1.478;2024-01-06T07:21:40;100340.88;;;7.79;100.00
24666;BME280;29726;53.532;-1.478;2024-01-06T07:24:24;100354.09;;;7.75;100.00
24666;BME280;29726;53.532;-1.478;2024-01-06T07:27:08;100349.44;;;7.72;100.00
24666;BME280;29726;53.532;-1.478;2024-01-06T07:29:52;100356.25;;;7.71;100.00
24666;BME280;29726;53.532;-1.478;2024-01-06T07:32:37;100371.69;;;7.72;100.00
24666;BME280;29726;53.532;-1.478;2024-01-06T07:35:21;100379.69;;;7.70;100.00
24666;BME280;29726;53.532;-1.478;2024-01-06T07:38:05;100362.00;;;7.55;100.00
24666;BME280;29726;53.532;-1.478;2024-01-06T07:40:48;100381.50;;;7.64;100.00
24666;BME280;29726;53.532;-1.478;2024-01-06T07:43:32;100379.94;;;7.63;100.00
24666;BME280;29726;53.532;-1.478;2024-01-06T07:46:17;100387.16;;;7.61;100.00
24666;BME280;29726;53.532;-1.478;2024-01-06T07:49:01;100390.41;;;7.59;100.00
24666;BME280;29726;53.532;-1.478;2024-01-06T07:51:45;100393.63;;;7.58;100.00
24666;BME280;29726;53.532;-1.478;2024-01-06T07:54:29;100398.53;;;7.54;100.00
24666;BME280;29726;53.532;-1.478;2024-01-06T07:57:14;100396.53;;;7.54;100.00
24666;BME280;29726;53.532;-1.478;2024-01-06T07:59:58;100401.75;;;7.52;100.00
24666;BME280;29726;53.532;-1.478;2024-01-06T08:02:42;100405.00;;;7.51;100.00
24666;BME280;29726;53.532;-1.478;2024-01-06T08:05:27;100408.34;;;7.46;100.00
24666;BME280;29726;53.532;-1.478;2024-01-06T08:08:11;100416.22;;;7.47;100.00
24666;BME280;29726;53.532;-1.478;2024-01-06T08:10:56;100429.34;;;7.47;100.00
24666;BME280;29726;53.532;-1.478;2024-01-06T08:13:41;100430.25;;;7.44;100.00
24666;BME280;29726;53.532;-1.478;2024-01-06T08:16:25;100418.59;;;7.36;100.00
24666;BME280;29726;53.532;-1.478;2024-01-06T08:19:11;100434.03;;;7.37;100.00
24666;BME280;29726;53.532;-1.478;2024-01-06T08:21:55;100433.69;;;7.35;100.00
24666;BME280;29726;53.532;-1.478;2024-01-06T08:24:39;100440.47;;;7.34;100.00
24666;BME280;29726;53.532;-1.478;2024-01-06T08:27:23;100440.16;;;7.32;100.00
24666;BME280;29726;53.532;-1.478;2024-01-06T08:30:08;100435.38;;;7.20;100.00
24666;BME280;29726;53.532;-1.478;2024-01-06T08:32:52;100452.81;;;7.33;100.00
24666;BME280;29726;53.532;-1.478;2024-01-06T08:35:36;100453.81;;;7.27;100.00
24666;BME280;29726;53.532;-1.478;2024-01-06T08:38:24;100470.00;;;7.28;100.00
24666;BME280;29726;53.532;-1.478;2024-01-06T08:41:08;100462.22;;;7.23;100.00
24666;BME280;29726;53.532;-1.478;2024-01-06T08:43:51;100474.78;;;7.28;100.00
24666;BME280;29726;53.532;-1.478;2024-01-06T08:46:36;100477.34;;;7.22;100.00
24666;BME280;29726;53.532;-1.478;2024-01-06T08:49:20;100485.22;;;7.24;100.00
24666;BME280;29726;53.532;-1.478;2024-01-06T08:52:06;100470.47;;;7.14;100.00
24666;BME280;29726;53.532;-1.478;2024-01-06T08:54:50;100489.22;;;7.23;100.00
24666;BME280;29726;53.532;-1.478;2024-01-06T08:57:34;100494.78;;;7.23;100.00
24666;BME280;29726;53.532;-1.478;2024-01-06T09:00:18;100499.88;;;7.24;100.00
24666;BME280;29726;53.532;-1.478;2024-01-06T09:03:02;100508.53;;;7.26;100.00
24666;BME280;29726;53.532;-1.478;2024-01-06T09:05:47;100491.44;;;7.15;100.00
24666;BME280;29726;53.532;-1.478;2024-01-06T09:08:30;100508.66;;;7.23;100.00
24666;BME280;29726;53.532;-1.478;2024-01-06T09:11:14;100508.22;;;7.24;100.00
24666;BME280;29726;53.532;-1.478;2024-01-06T09:13:58;100512.09;;;7.27;100.00
24666;BME280;29726;53.532;-1.478;2024-01-06T09:16:43;100508.09;;;7.28;100.00
24666;BME280;29726;53.532;-1.478;2024-01-06T09:19:27;100523.06;;;7.30;100.00
24666;BME280;29726;53.532;-1.478;2024-01-06T09:22:12;100517.19;;;7.28;100.00
24666;BME280;29726;53.532;-1.478;2024-01-06T09:24:57;100525.84;;;7.30;100.00
24666;BME280;29726;53.532;-1.478;2024-01-06T09:27:41;100524.53;;;7.35;100.00
24666;BME280;29726;53.532;-1.478;2024-01-06T09:30:24;100527.63;;;7.37;100.00
24666;BME280;29726;53.532;-1.478;2024-01-06T09:33:09;100530.31;;;7.40;100.00
24666;BME280;29726;53.532;-1.478;2024-01-06T09:35:53;100532.19;;;7.43;100.00
24666;BME280;29726;53.532;-1.478;2024-01-06T09:38:37;100527.44;;;7.44;100.00
24666;BME280;29726;53.532;-1.478;2024-01-06T09:41:21;100524.66;;;7.44;100.00
24666;BME280;29726;53.532;-1.478;2024-01-06T09:44:06;100531.63;;;7.48;100.00
24666;BME280;29726;53.532;-1.478;2024-01-06T09:46:50;100540.19;;;7.54;100.00
24666;BME280;29726;53.532;-1.478;2024-01-06T09:49:34;100542.41;;;7.59;100.00
24666;BME280;29726;53.532;-1.478;2024-01-06T09:52:22;100545.81;;;7.63;100.00
24666;BME280;29726;53.532;-1.478;2024-01-06T09:55:10;100541.72;;;7.67;100.00
24666;BME280;29726;53.532;-1.478;2024-01-06T09:57:54;100542.84;;;7.70;100.00
24666;BME280;29726;53.532;-1.478;2024-01-06T10:00:39;100541.47;;;7.74;100.00
24666;BME280;29726;53.532;-1.478;2024-01-06T10:03:23;100549.72;;;7.78;100.00
24666;BME280;29726;53.532;-1.478;2024-01-06T10:06:06;100546.81;;;7.81;100.00
24666;BME280;29726;53.532;-1.478;2024-01-06T10:08:53;100544.81;;;7.82;100.00
24666;BME280;29726;53.532;-1.478;2024-01-06T10:11:37;100553.69;;;7.89;100.00
24666;BME280;29726;53.532;-1.478;2024-01-06T10:14:21;100546.13;;;7.90;100.00
24666;BME280;29726;53.532;-1.478;2024-01-06T10:17:06;100550.34;;;7.94;100.00
24666;BME280;29726;53.532;-1.478;2024-01-06T10:19:51;100554.88;;;8.01;100.00
24666;BME280;29726;53.532;-1.478;2024-01-06T10:22:37;100556.31;;;8.05;100.00
24666;BME280;29726;53.532;-1.478;2024-01-06T10:25:23;100549.06;;;8.08;100.00
24666;BME280;29726;53.532;-1.478;2024-01-06T10:28:11;100556.97;;;8.09;100.00
24666;BME280;29726;53.532;-1.478;2024-01-06T10:30:56;100561.53;;;8.16;100.00
24666;BME280;29726;53.532;-1.478;2024-01-06T10:33:40;100558.97;;;8.21;100.00
24666;BME280;29726;53.532;-1.478;2024-01-06T10:36:24;100554.94;;;8.22;100.00
24666;BME280;29726;53.532;-1.478;2024-01-06T10:39:11;100562.75;;;8.27;100.00
24666;BME280;29726;53.532;-1.478;2024-01-06T10:41:56;100568.16;;;8.30;100.00
24666;BME280;29726;53.532;-1.478;2024-01-06T10:44:42;100566.03;;;8.34;100.00
24666;BME280;29726;53.532;-1.478;2024-01-06T10:47:27;100578.00;;;8.44;100.00
24666;BME280;29726;53.532;-1.478;2024-01-06T10:50:17;100559.59;;;8.37;100.00
24666;BME280;29726;53.532;-1.478;2024-01-06T10:53:01;100566.19;;;8.52;100.00
24666;BME280;29726;53.532;-1.478;2024-01-06T10:55:49;100567.94;;;8.59;100.00
24666;BME280;29726;53.532;-1.478;2024-01-06T10:58:35;100569.81;;;8.62;100.00
24666;BME280;29726;53.532;-1.478;2024-01-06T11:01:28;100570.34;;;8.69;100.00
24666;BME280;29726;53.532;-1.478;2024-01-06T11:04:13;100566.53;;;8.76;100.00
24666;BME280;29726;53.532;-1.478;2024-01-06T11:06:58;100564.06;;;8.78;100.00
24666;BME280;29726;53.532;-1.478;2024-01-06T11:10:12;100557.59;;;8.81;100.00
24666;BME280;29726;53.532;-1.478;2024-01-06T11:13:14;100560.41;;;8.90;100.00
24666;BME280;29726;53.532;-1.478;2024-01-06T11:15:59;100558.63;;;8.96;100.00
24666;BME280;29726;53.532;-1.478;2024-01-06T11:18:43;100550.91;;;9.00;100.00
24666;BME280;29726;53.532;-1.478;2024-01-06T11:21:27;100550.63;;;9.07;100.00
24666;BME280;29726;53.532;-1.478;2024-01-06T11:24:20;100557.94;;;9.13;100.00
24666;BME280;29726;53.532;-1.478;2024-01-06T11:27:05;100555.47;;;9.15;100.00
24666;BME280;29726;53.532;-1.478;2024-01-06T11:29:53;100546.66;;;9.17;100.00
24666;BME280;29726;53.532;-1.478;2024-01-06T11:32:40;100559.38;;;9.27;100.00
24666;BME280;29726;53.532;-1.478;2024-01-06T11:35:27;100557.88;;;9.35;100.00
24666;BME280;29726;53.532;-1.478;2024-01-06T11:38:11;100558.19;;;9.37;100.00
24666;BME280;29726;53.532;-1.478;2024-01-06T11:40:56;100551.69;;;9.40;100.00
24666;BME280;29726;53.532;-1.478;2024-01-06T11:43:42;100550.66;;;9.46;100.00
24666;BME280;29726;53.532;-1.478;2024-01-06T11:46:28;100555.16;;;9.53;100.00
24666;BME280;29726;53.532;-1.478;2024-01-06T11:49:15;100552.56;;;9.58;100.00
24666;BME280;29726;53.532;-1.478;2024-01-06T11:52:00;100564.34;;;9.62;100.00
24666;BME280;29726;53.532;-1.478;2024-01-06T11:54:45;100561.72;;;9.68;100.00
24666;BME280;29726;53.532;-1.478;2024-01-06T11:57:29;100557.22;;;9.70;100.00
24666;BME280;29726;53.532;-1.478;2024-01-06T12:00:14;100560.19;;;9.76;100.00
24666;BME280;29726;53.532;-1.478;2024-01-06T12:02:59;100560.06;;;9.79;100.00
24666;BME280;29726;53.532;-1.478;2024-01-06T12:05:44;100539.56;;;9.73;100.00
24666;BME280;29726;53.532;-1.478;2024-01-06T12:08:28;100539.75;;;9.79;100.00
24666;BME280;29726;53.532;-1.478;2024-01-06T12:11:17;100555.91;;;9.92;100.00
24666;BME280;29726;53.532;-1.478;2024-01-06T12:14:01;100546.00;;;9.91;100.00
24666;BME280;29726;53.532;-1.478;2024-01-06T12:16:45;100553.59;;;10.00;100.00
24666;BME280;29726;53.532;-1.478;2024-01-06T12:19:32;100553.00;;;10.05;100.00
24666;BME280;29726;53.532;-1.478;2024-01-06T12:22:16;100552.09;;;10.08;100.00
24666;BME280;29726;53.532;-1.478;2024-01-06T12:25:00;100549.91;;;10.12;100.00
24666;BME280;29726;53.532;-1.478;2024-01-06T12:27:45;100551.63;;;10.18;100.00
24666;BME280;29726;53.532;-1.478;2024-01-06T12:30:30;100549.59;;;10.19;100.00
24666;BME280;29726;53.532;-1.478;2024-01-06T12:33:15;100561.25;;;10.26;100.00
24666;BME280;29726;53.532;-1.478;2024-01-06T12:35:59;100548.84;;;10.27;100.00
24666;BME280;29726;53.532;-1.478;2024-01-06T12:38:43;100551.00;;;10.32;100.00
24666;BME280;29726;53.532;-1.478;2024-01-06T12:41:28;100555.69;;;10.35;100.00
24666;BME280;29726;53.532;-1.478;2024-01-06T12:44:11;100552.28;;;10.40;100.00
24666;BME280;29726;53.532;-1.478;2024-01-06T12:46:56;100569.31;;;10.42;100.00
24666;BME280;29726;53.532;-1.478;2024-01-06T12:49:40;100558.31;;;10.48;100.00
24666;BME280;29726;53.532;-1.478;2024-01-06T12:52:24;100554.75;;;10.47;100.00
24666;BME280;29726;53.532;-1.478;2024-01-06T12:55:08;100567.75;;;10.50;100.00
24666;BME280;29726;53.532;-1.478;2024-01-06T12:57:52;100564.50;;;10.52;100.00
24666;BME280;29726;53.532;-1.478;2024-01-06T13:00:36;100574.75;;;10.55;100.00
24666;BME280;29726;53.532;-1.478;2024-01-06T13:03:21;100567.31;;;10.52;100.00
24666;BME280;29726;53.532;-1.478;2024-01-06T13:06:05;100569.03;;;10.58;100.00
24666;BME280;29726;53.532;-1.478;2024-01-06T13:08:49;100571.81;;;10.58;100.00
24666;BME280;29726;53.532;-1.478;2024-01-06T13:11:35;100580.00;;;10.62;100.00
24666;BME280;29726;53.532;-1.478;2024-01-06T13:14:20;100564.03;;;10.62;100.00
24666;BME280;29726;53.532;-1.478;2024-01-06T13:17:03;100569.03;;;10.58;100.00
24666;BME280;29726;53.532;-1.478;2024-01-06T13:19:48;100577.81;;;10.66;100.00
24666;BME280;29726;53.532;-1.478;2024-01-06T13:22:33;100579.38;;;10.67;100.00
24666;BME280;29726;53.532;-1.478;2024-01-06T13:25:18;100580.47;;;10.69;100.00
24666;BME280;29726;53.532;-1.478;2024-01-06T13:28:04;100574.91;;;10.69;100.00
24666;BME280;29726;53.532;-1.478;2024-01-06T13:30:48;100584.81;;;10.70;100.00
24666;BME280;29726;53.532;-1.478;2024-01-06T13:33:33;100587.16;;;10.72;100.00
24666;BME280;29726;53.532;-1.478;2024-01-06T13:36:19;100593.81;;;10.74;100.00
24666;BME280;29726;53.532;-1.478;2024-01-06T13:39:03;100592.56;;;10.75;100.00
24666;BME280;29726;53.532;-1.478;2024-01-06T13:41:49;100595.34;;;10.75;100.00
24666;BME280;29726;53.532;-1.478;2024-01-06T13:44:33;100597.09;;;10.73;100.00
24666;BME280;29726;53.532;-1.478;2024-01-06T13:47:17;100598.16;;;10.75;100.00
24666;BME280;29726;53.532;-1.478;2024-01-06T13:50:01;100601.41;;;10.74;100.00
24666;BME280;29726;53.532;-1.478;2024-01-06T13:52:45;100606.22;;;10.73;100.00
24666;BME280;29726;53.532;-1.478;2024-01-06T13:55:30;100604.53;;;10.76;100.00
24666;BME280;29726;53.532;-1.478;2024-01-06T13:58:14;100608.88;;;10.77;100.00
24666;BME280;29726;53.532;-1.478;2024-01-06T14:00:58;100603.28;;;10.68;100.00
24666;BME280;29726;53.532;-1.478;2024-01-06T14:03:41;100618.19;;;10.74;100.00
24666;BME280;29726;53.532;-1.478;2024-01-06T14:06:26;100618.19;;;10.74;100.00
24666;BME280;29726;53.532;-1.478;2024-01-06T14:09:13;100621.28;;;10.76;100.00
24666;BME280;29726;53.532;-1.478;2024-01-06T14:11:57;100623.59;;;10.77;100.00
24666;BME280;29726;53.532;-1.478;2024-01-06T14:14:42;100621.28;;;10.76;100.00